Time;durP1;ratioP1;P1;durP2;ratioP2;P2;SDS_P1;SDS_P2;PMS_P1;PMS_P2;Temp;Humidity;BMP_temperature;BMP_pressure;BME280_temperature;BME280_humidity;BME280_pressure;Samples;Min_cycle;Max_cycle;Signal;HPM_P1;HPM_P2
2022/12/14 00:00:31;;;;;;;5.85;2.45;;;;;;;;;;4930404;29;20111;-41
2022/12/14 00:02:57;;;;;;;4.05;2.45;;;;;;;;;;4924969;29;20042;-41
2022/12/14 00:05:22;;;;;;;3.30;2.80;;;;;;;;;;4927862;29;20036;-40
2022/12/14 00:07:47;;;;;;;2.58;2.17;;;;;;;;;;4929505;29;20055;-40
2022/12/14 00:10:13;;;;;;;2.42;2.28;;;;;;;;;;4926042;28;20281;-42
2022/12/14 00:12:38;;;;;;;2.55;2.25;;;;;;;;;;4927654;29;20038;-39
2022/12/14 00:15:04;;;;;;;4.60;2.50;;;;;;;;;;4930074;28;20455;-40
2022/12/14 00:17:29;;;;;;;3.95;2.55;;;;;;;;;;4929818;29;20039;-40
2022/12/14 00:19:55;;;;;;;3.00;2.67;;;;;;;;;;4926888;29;20044;-41
2022/12/14 00:22:20;;;;;;;3.30;2.72;;;;;;;;;;4929240;29;20043;-40
2022/12/14 00:24:45;;;;;;;5.95;2.60;;;;;;;;;;4926399;28;20419;-41
2022/12/14 00:27:11;;;;;;;5.25;2.78;;;;;;;;;;4924156;29;20083;-40
2022/12/14 00:29:36;;;;;;;3.63;2.67;;;;;;;;;;4927213;28;20461;-40
2022/12/14 00:32:02;;;;;;;5.32;2.22;;;;;;;;;;4928326;29;20084;-40
2022/12/14 00:34:27;;;;;;;3.20;3.00;;;;;;;;;;4926344;29;20470;-42
2022/12/14 00:36:54;;;;;;;3.22;2.30;;;;;;;;;;4926512;29;20036;-40
2022/12/14 00:39:19;;;;;;;2.35;2.13;;;;;;;;;;4928378;28;20044;-40
2022/12/14 00:41:45;;;;;;;4.57;2.50;;;;;;;;;;4928504;29;20533;-41
2022/12/14 00:44:10;;;;;;;2.70;2.50;;;;;;;;;;4932064;28;20091;-41
2022/12/14 00:46:35;;;;;;;4.03;2.45;;;;;;;;;;4929958;29;20027;-40
2022/12/14 00:49:01;;;;;;;2.65;2.47;;;;;;;;;;4931498;28;20163;-41
2022/12/14 00:51:26;;;;;;;3.08;2.78;;;;;;;;;;4930889;29;20386;-41
2022/12/14 00:53:52;;;;;;;2.65;2.33;;;;;;;;;;4930056;29;20058;-40
2022/12/14 00:56:17;;;;;;;3.97;2.22;;;;;;;;;;4932678;29;20039;-41
2022/12/14 00:58:42;;;;;;;2.40;2.20;;;;;;;;;;4931691;28;20384;-41
2022/12/14 01:01:14;;;;;;;4.30;2.20;;;;;;;;;;4931910;29;20027;-40
2022/12/14 01:03:40;;;;;;;2.42;2.13;;;;;;;;;;4925981;28;20044;-42
2022/12/14 01:06:12;;;;;;;2.45;2.00;;;;;;;;;;4933766;29;20083;-40
2022/12/14 01:08:37;;;;;;;2.22;2.00;;;;;;;;;;4931285;29;20627;-40
2022/12/14 01:11:06;;;;;;;2.13;2.03;;;;;;;;;;4931661;29;20115;-40
2022/12/14 01:13:32;;;;;;;3.55;2.00;;;;;;;;;;4928313;29;20040;-40
2022/12/14 01:16:16;;;;;;;3.65;2.20;;;;;;;;;;4929909;29;20035;-41
2022/12/14 01:18:42;;;;;;;2.28;2.08;;;;;;;;;;4932511;28;20036;-40
2022/12/14 01:21:13;;;;;;;2.95;2.20;;;;;;;;;;4931198;29;20066;-40
2022/12/14 01:23:39;;;;;;;2.63;1.90;;;;;;;;;;4930390;28;20036;-40
2022/12/14 01:26:04;;;;;;;1.98;1.88;;;;;;;;;;4931031;29;20024;-40
2022/12/14 01:28:29;;;;;;;2.92;1.77;;;;;;;;;;4932301;29;20398;-40
2022/12/14 01:30:55;;;;;;;2.22;2.03;;;;;;;;;;4930183;29;20034;-40
2022/12/14 01:33:20;;;;;;;2.75;2.08;;;;;;;;;;4929697;28;20048;-40
2022/12/14 01:35:46;;;;;;;4.28;2.00;;;;;;;;;;4929057;29;20050;-41
2022/12/14 01:38:11;;;;;;;1.90;1.70;;;;;;;;;;4930184;28;20494;-41
2022/12/14 01:40:36;;;;;;;2.05;1.67;;;;;;;;;;4932186;29;20034;-40
2022/12/14 01:43:02;;;;;;;2.83;1.60;;;;;;;;;;4930077;28;20090;-42
2022/12/14 01:45:27;;;;;;;1.80;1.70;;;;;;;;;;4932401;29;20490;-41
2022/12/14 01:47:57;;;;;;;2.90;1.70;;;;;;;;;;4926993;28;20039;-41
2022/12/14 01:50:34;;;;;;;2.95;2.10;;;;;;;;;;4931425;29;20402;-40
2022/12/14 01:53:06;;;;;;;1.98;1.63;;;;;;;;;;4926993;28;20032;-41
2022/12/14 01:55:42;;;;;;;2.33;1.42;;;;;;;;;;4928451;29;20051;-42
2022/12/14 01:58:12;;;;;;;1.50;1.40;;;;;;;;;;4926563;29;20151;-42
2022/12/14 02:00:38;;;;;;;2.25;1.48;;;;;;;;;;4932197;29;20047;-40
2022/12/14 02:03:21;;;;;;;2.65;1.30;;;;;;;;;;4926927;28;20028;-41
2022/12/14 02:05:52;;;;;;;1.20;1.10;;;;;;;;;;4930009;29;20507;-41
2022/12/14 02:08:20;;;;;;;4.97;1.17;;;;;;;;;;4927102;28;20075;-41
2022/12/14 02:10:47;;;;;;;1.58;1.48;;;;;;;;;;4931088;29;20458;-41
2022/12/14 02:13:29;;;;;;;2.67;1.60;;;;;;;;;;4929796;28;20070;-43
2022/12/14 02:15:55;;;;;;;1.67;1.55;;;;;;;;;;4927189;29;20031;-40
2022/12/14 02:18:23;;;;;;;1.50;1.40;;;;;;;;;;4931352;29;20138;-41
2022/12/14 02:21:06;;;;;;;1.80;1.70;;;;;;;;;;4929899;29;20063;-41
2022/12/14 02:23:31;;;;;;;1.58;1.27;;;;;;;;;;4925919;28;20036;-42
2022/12/14 02:26:20;;;;;;;1.48;1.35;;;;;;;;;;4929208;29;20855;-44
2022/12/14 02:29:10;;;;;;;2.05;1.75;;;;;;;;;;4923571;29;20052;-40
2022/12/14 02:31:41;;;;;;;1.90;1.67;;;;;;;;;;4931015;29;20037;-42
2022/12/14 02:34:16;;;;;;;1.85;1.60;;;;;;;;;;4929543;28;20044;-42
2022/12/14 02:37:05;;;;;;;2.20;2.00;;;;;;;;;;4930063;28;20016;-41
2022/12/14 02:39:44;;;;;;;1.73;1.63;;;;;;;;;;4926908;29;20042;-46
2022/12/14 02:42:14;;;;;;;3.55;1.63;;;;;;;;;;4929500;29;20700;-43
2022/12/14 02:45:01;;;;;;;2.25;2.05;;;;;;;;;;4928028;29;20135;-41
2022/12/14 02:47:38;;;;;;;2.83;1.67;;;;;;;;;;4930025;29;20024;-42
2022/12/14 02:50:13;;;;;;;1.80;1.70;;;;;;;;;;4926909;29;20048;-42
2022/12/14 02:53:16;;;;;;;3.00;1.70;;;;;;;;;;4928307;29;20147;-41
2022/12/14 02:55:49;;;;;;;1.75;1.65;;;;;;;;;;4928174;29;20047;-44
2022/12/14 02:58:17;;;;;;;;;;;;;;;;;;4926336;29;20087;-41
2022/12/14 03:00:43;;;;;;;2.25;1.67;;;;;;;;;;4928774;29;20022;-43
2022/12/14 03:03:09;;;;;;;4.30;1.70;;;;;;;;;;4927159;29;20414;-41
2022/12/14 03:05:35;;;;;;;2.42;1.50;;;;;;;;;;4927700;29;20024;-41
2022/12/14 03:08:07;;;;;;;2.25;1.38;;;;;;;;;;4929232;29;20024;-44
2022/12/14 03:10:58;;;;;;;3.20;1.90;;;;;;;;;;4927069;29;20044;-40
2022/12/14 03:13:32;;;;;;;6.88;1.60;;;;;;;;;;4925601;29;20086;-43
2022/12/14 03:16:12;;;;;;;1.85;1.55;;;;;;;;;;4926917;29;20048;-40
2022/12/14 03:18:43;;;;;;;1.80;1.70;;;;;;;;;;4929654;28;20047;-40
2022/12/14 03:21:11;;;;;;;1.58;1.48;;;;;;;;;;4928384;29;20118;-41
2022/12/14 03:23:40;;;;;;;2.47;1.73;;;;;;;;;;4924580;29;20040;-42
2022/12/14 03:26:14;;;;;;;2.72;1.73;;;;;;;;;;4929418;29;20028;-42
2022/12/14 03:28:45;;;;;;;3.55;1.65;;;;;;;;;;4928773;28;20051;-41
2022/12/14 03:31:21;;;;;;;2.38;1.70;;;;;;;;;;4926096;29;20426;-41
2022/12/14 03:33:50;;;;;;;2.00;1.80;;;;;;;;;;4926928;28;20122;-40
2022/12/14 03:36:25;;;;;;;1.75;1.50;;;;;;;;;;4926825;29;20028;-41
2022/12/14 03:38:54;;;;;;;2.00;1.67;;;;;;;;;;4930792;28;20044;-40
2022/12/14 03:41:25;;;;;;;4.93;2.03;;;;;;;;;;4927417;29;20032;-40
2022/12/14 03:44:01;;;;;;;1.45;1.35;;;;;;;;;;4926829;28;20499;-41
2022/12/14 03:46:51;;;;;;;1.40;1.30;;;;;;;;;;4927357;29;20098;-40
2022/12/14 03:49:23;;;;;;;1.60;1.50;;;;;;;;;;4923675;28;20052;-43
2022/12/14 03:51:56;;;;;;;1.75;1.63;;;;;;;;;;4931292;29;20031;-41
2022/12/14 03:54:46;;;;;;;1.63;1.50;;;;;;;;;;4926031;28;20047;-41
2022/12/14 03:57:33;;;;;;;1.80;1.70;;;;;;;;;;4926741;29;20091;-42
2022/12/14 04:00:15;;;;;;;2.30;1.48;;;;;;;;;;4927792;28;20134;-41
2022/12/14 04:03:10;;;;;;;4.03;1.25;;;;;;;;;;4929132;29;20023;-43
2022/12/14 04:05:48;;;;;;;1.45;1.42;;;;;;;;;;4926465;29;20048;-41
2022/12/14 04:08:16;;;;;;;1.00;1.00;;;;;;;;;;4926297;28;20051;-40
2022/12/14 04:19:25;;;;;;;1.08;1.05;;;;;;;;;;4930099;28;20406;-40
2022/12/14 04:21:55;;;;;;;2.03;1.25;;;;;;;;;;4930186;28;20036;-43
2022/12/14 04:27:43;;;;;;;1.30;1.10;;;;;;;;;;4929321;29;20063;-41
2022/12/14 04:30:10;;;;;;;2.03;0.90;;;;;;;;;;4936629;28;20042;-41
2022/12/14 04:32:45;;;;;;;1.13;1.00;;;;;;;;;;4930628;29;20050;-42
2022/12/14 04:35:15;;;;;;;1.13;1.13;;;;;;;;;;4925639;28;20123;-41
2022/12/14 04:37:47;;;;;;;1.30;1.17;;;;;;;;;;4929905;29;21078;-41
2022/12/14 04:40:36;;;;;;;1.10;1.00;;;;;;;;;;4930881;28;20043;-41
2022/12/14 04:43:12;;;;;;;0.93;0.93;;;;;;;;;;4932977;29;20031;-41
2022/12/14 04:45:45;;;;;;;0.80;0.80;;;;;;;;;;4925785;29;20038;-40
2022/12/14 04:48:23;;;;;;;1.00;1.00;;;;;;;;;;4928369;28;20059;-41
2022/12/14 04:50:55;;;;;;;0.80;0.80;;;;;;;;;;4928503;29;23740;-41
2022/12/14 04:53:24;;;;;;;0.70;0.70;;;;;;;;;;4928933;28;20043;-41
2022/12/14 04:56:03;;;;;;;1.30;1.30;;;;;;;;;;4927423;29;20039;-41
2022/12/14 04:58:29;;;;;;;1.20;1.10;;;;;;;;;;4927544;28;20048;-44
2022/12/14 05:01:10;;;;;;;0.93;0.93;;;;;;;;;;4928601;29;20466;-40
2022/12/14 05:03:58;;;;;;;1.00;0.88;;;;;;;;;;4932048;28;20036;-41
2022/12/14 05:06:31;;;;;;;0.70;0.70;;;;;;;;;;4929663;29;20028;-41
2022/12/14 05:09:12;;;;;;;1.38;0.47;;;;;;;;;;4930506;28;20055;-40
2022/12/14 05:11:47;;;;;;;0.60;0.60;;;;;;;;;;4928668;29;20123;-41
2022/12/14 05:14:23;;;;;;;0.60;0.60;;;;;;;;;;4927295;28;20040;-41
2022/12/14 05:16:49;;;;;;;0.50;0.50;;;;;;;;;;4929159;29;20402;-41
2022/12/14 05:19:14;;;;;;;0.30;0.30;;;;;;;;;;4933430;28;20048;-41
2022/12/14 05:21:46;;;;;;;0.50;0.50;;;;;;;;;;4929389;29;20031;-40
2022/12/14 05:24:11;;;;;;;0.38;0.38;;;;;;;;;;4927769;28;20512;-41
2022/12/14 05:26:37;;;;;;;0.30;0.30;;;;;;;;;;4928333;29;20111;-40
2022/12/14 05:29:02;;;;;;;0.95;0.45;;;;;;;;;;4924003;29;20038;-40
2022/12/14 05:31:27;;;;;;;0.40;0.40;;;;;;;;;;4928705;29;20042;-41
2022/12/14 05:33:53;;;;;;;0.43;0.43;;;;;;;;;;4926555;28;20051;-42
2022/12/14 05:36:18;;;;;;;0.30;0.30;;;;;;;;;;4927594;29;20032;-40
2022/12/14 05:38:44;;;;;;;0.40;0.40;;;;;;;;;;4930545;28;20035;-40
2022/12/14 05:41:09;;;;;;;0.43;0.28;;;;;;;;;;4932336;29;20035;-40
2022/12/14 05:43:34;;;;;;;0.30;0.30;;;;;;;;;;4928678;28;20043;-41
2022/12/14 05:46:02;;;;;;;0.22;0.22;;;;;;;;;;4928508;29;20363;-40
2022/12/14 05:48:28;;;;;;;0.30;0.30;;;;;;;;;;4930168;29;20040;-42
2022/12/14 05:50:53;;;;;;;0.30;0.30;;;;;;;;;;4931474;29;20038;-44
2022/12/14 05:53:19;;;;;;;1.48;0.50;;;;;;;;;;4930088;29;20059;-43
2022/12/14 05:55:49;;;;;;;0.55;0.55;;;;;;;;;;4926272;29;20467;-41
2022/12/14 05:58:14;;;;;;;0.50;0.50;;;;;;;;;;4928984;28;20154;-40
2022/12/14 06:00:40;;;;;;;1.48;0.40;;;;;;;;;;4926370;29;20110;-41
2022/12/14 06:03:06;;;;;;;0.20;0.20;;;;;;;;;;4928603;28;20031;-41
2022/12/14 06:05:31;;;;;;;0.47;0.47;;;;;;;;;;4930423;29;20470;-41
2022/12/14 06:07:57;;;;;;;0.38;0.38;;;;;;;;;;4929470;28;20032;-38
2022/12/14 06:10:22;;;;;;;0.40;0.40;;;;;;;;;;4931356;29;20491;-41
2022/12/14 06:12:48;;;;;;;1.35;1.00;;;;;;;;;;4927707;29;20726;-40
2022/12/14 06:15:13;;;;;;;0.50;0.50;;;;;;;;;;4925705;28;20127;-41
2022/12/14 06:17:43;;;;;;;0.60;0.60;;;;;;;;;;4924930;29;20490;-40
2022/12/14 06:20:10;;;;;;;2.42;0.95;;;;;;;;;;4927975;28;20063;-43
2022/12/14 06:22:35;;;;;;;1.80;1.70;;;;;;;;;;4930733;29;20039;-40
2022/12/14 06:25:00;;;;;;;3.25;2.10;;;;;;;;;;4928508;28;20047;-40
2022/12/14 06:27:26;;;;;;;2.20;1.80;;;;;;;;;;4926436;29;20032;-41
2022/12/14 06:29:51;;;;;;;4.72;4.22;;;;;;;;;;4926917;29;20400;-40
2022/12/14 06:32:16;;;;;;;1.95;1.70;;;;;;;;;;4922331;29;20032;-40
2022/12/14 06:34:44;;;;;;;3.03;1.77;;;;;;;;;;4923327;28;20046;-41
2022/12/14 06:37:09;;;;;;;1.65;1.42;;;;;;;;;;4927999;29;20023;-41
2022/12/14 06:39:35;;;;;;;1.10;1.10;;;;;;;;;;4923743;29;20048;-40
2022/12/14 06:42:00;;;;;;;1.10;1.10;;;;;;;;;;4924894;29;20173;-40
2022/12/14 06:44:26;;;;;;;1.55;1.30;;;;;;;;;;4934322;29;20125;-42
2022/12/14 06:46:51;;;;;;;1.60;1.50;;;;;;;;;;4927937;29;20028;-41
2022/12/14 06:49:16;;;;;;;1.33;1.30;;;;;;;;;;4928810;28;20039;-42
2022/12/14 06:51:42;;;;;;;1.63;1.52;;;;;;;;;;4928534;29;20079;-40
2022/12/14 06:54:10;;;;;;;1.90;1.73;;;;;;;;;;4928810;28;20048;-40
2022/12/14 06:56:36;;;;;;;3.75;2.05;;;;;;;;;;4928754;29;20071;-41
2022/12/14 06:59:01;;;;;;;2.72;2.53;;;;;;;;;;4920719;28;20438;-41
2022/12/14 07:01:27;;;;;;;3.00;2.80;;;;;;;;;;4923016;29;20023;-41
2022/12/14 07:03:55;;;;;;;4.45;2.17;;;;;;;;;;4923340;28;20079;-40
2022/12/14 07:06:23;;;;;;;1.55;1.45;;;;;;;;;;4931313;29;20164;-43
2022/12/14 07:08:52;;;;;;;1.90;1.80;;;;;;;;;;4922709;28;20047;-43
2022/12/14 07:11:17;;;;;;;3.72;1.45;;;;;;;;;;4928627;29;20115;-44
2022/12/14 07:13:43;;;;;;;2.05;1.88;;;;;;;;;;4929191;28;20126;-44
2022/12/14 07:16:16;;;;;;;3.38;3.08;;;;;;;;;;4928054;28;20497;-40
2022/12/14 07:18:42;;;;;;;3.20;3.00;;;;;;;;;;4923470;28;20130;-40
2022/12/14 07:21:09;;;;;;;3.13;2.70;;;;;;;;;;4928883;29;20107;-43
2022/12/14 07:23:36;;;;;;;2.80;2.60;;;;;;;;;;4927165;29;20438;-41
2022/12/14 07:26:06;;;;;;;2.75;2.50;;;;;;;;;;4926267;29;20745;-40
2022/12/14 07:28:32;;;;;;;4.80;3.75;;;;;;;;;;4927453;29;20051;-42
2022/12/14 07:30:58;;;;;;;4.72;4.05;;;;;;;;;;4929930;29;20059;-46
2022/12/14 07:33:25;;;;;;;122.25;53.15;;;;;;;;;;4930778;28;20055;-43
2022/12/14 07:35:50;;;;;;;42.65;23.05;;;;;;;;;;4929189;29;20074;-43
2022/12/14 07:38:16;;;;;;;23.00;12.98;;;;;;;;;;4926142;29;20410;-41
2022/12/14 07:40:43;;;;;;;18.58;12.00;;;;;;;;;;4929021;29;20134;-41
2022/12/14 07:43:09;;;;;;;15.65;10.80;;;;;;;;;;4924072;28;20031;-41
2022/12/14 07:45:34;;;;;;;14.80;9.82;;;;;;;;;;4923602;29;20026;-41
2022/12/14 07:47:59;;;;;;;12.57;10.02;;;;;;;;;;4927955;28;20035;-39
2022/12/14 07:50:25;;;;;;;9.38;7.82;;;;;;;;;;4926856;29;20508;-42
2022/12/14 07:52:50;;;;;;;11.82;6.57;;;;;;;;;;4925777;29;20103;-41
2022/12/14 07:55:16;;;;;;;7.07;5.47;;;;;;;;;;4921968;29;20087;-42
2022/12/14 07:57:41;;;;;;;6.65;6.00;;;;;;;;;;4929310;29;20024;-41
2022/12/14 08:00:07;;;;;;;7.32;6.10;;;;;;;;;;4924698;28;20076;-43
2022/12/14 08:02:32;;;;;;;6.25;5.53;;;;;;;;;;4928807;29;20044;-43
2022/12/14 08:04:58;;;;;;;5.25;4.75;;;;;;;;;;4927360;28;20046;-40
2022/12/14 08:07:23;;;;;;;8.75;7.75;;;;;;;;;;4927562;29;20032;-42
2022/12/14 08:09:48;;;;;;;7.95;6.45;;;;;;;;;;4924718;28;20637;-41
2022/12/14 08:12:14;;;;;;;7.53;6.50;;;;;;;;;;4930586;29;20052;-40
2022/12/14 08:14:39;;;;;;;10.48;7.57;;;;;;;;;;4929135;28;20046;-41
2022/12/14 08:17:04;;;;;;;10.65;6.10;;;;;;;;;;4926686;29;20027;-41
2022/12/14 08:19:30;;;;;;;6.20;5.20;;;;;;;;;;4920975;28;20040;-44
2022/12/14 08:21:55;;;;;;;6.07;4.47;;;;;;;;;;4924838;29;20020;-41
2022/12/14 08:24:20;;;;;;;6.60;5.45;;;;;;;;;;4925827;29;20083;-43
2022/12/14 08:26:46;;;;;;;5.75;4.00;;;;;;;;;;4927835;29;20032;-43
2022/12/14 08:29:13;;;;;;;4.70;3.10;;;;;;;;;;4928748;28;20039;-40
2022/12/14 08:31:39;;;;;;;4.57;4.15;;;;;;;;;;4928235;29;20032;-41
2022/12/14 08:34:04;;;;;;;5.72;5.22;;;;;;;;;;4929146;28;20044;-42
2022/12/14 08:36:32;;;;;;;4.93;3.90;;;;;;;;;;4924583;29;20038;-41
2022/12/14 08:39:02;;;;;;;6.88;6.28;;;;;;;;;;4926703;28;20056;-42
2022/12/14 08:41:28;;;;;;;4.50;3.95;;;;;;;;;;4929341;29;20044;-42
2022/12/14 08:43:56;;;;;;;49.83;21.15;;;;;;;;;;4926044;29;20040;-43
2022/12/14 08:46:22;;;;;;;169.18;52.72;;;;;;;;;;4925536;29;20032;-40
2022/12/14 08:48:50;;;;;;;162.85;55.65;;;;;;;;;;4931479;28;20047;-41
2022/12/14 08:51:16;;;;;;;64.13;30.02;;;;;;;;;;4927011;29;20050;-43
2022/12/14 08:53:42;;;;;;;23.02;12.88;;;;;;;;;;4923836;28;20050;-43
2022/12/14 08:56:12;;;;;;;9.55;6.78;;;;;;;;;;4925116;29;20035;-44
2022/12/14 08:58:39;;;;;;;28.15;14.88;;;;;;;;;;4927019;28;20091;-41
2022/12/14 09:01:19;;;;;;;20.88;11.88;;;;;;;;;;4927652;29;20082;-43
2022/12/14 09:03:46;;;;;;;24.15;12.68;;;;;;;;;;4923562;28;20039;-41
2022/12/14 09:06:14;;;;;;;7.55;4.90;;;;;;;;;;4922534;29;20092;-41
2022/12/14 09:08:40;;;;;;;8.35;4.68;;;;;;;;;;4928351;28;20481;-40
2022/12/14 09:11:09;;;;;;;7.20;4.22;;;;;;;;;;4927481;29;20031;-40
2022/12/14 09:13:34;;;;;;;8.50;5.70;;;;;;;;;;4932232;28;20067;-40
2022/12/14 09:16:03;;;;;;;7.25;5.38;;;;;;;;;;4927027;29;20066;-41
2022/12/14 09:18:29;;;;;;;13.40;8.40;;;;;;;;;;4930172;28;20070;-41
2022/12/14 09:20:55;;;;;;;5.55;4.13;;;;;;;;;;4928795;29;20490;-40
2022/12/14 09:23:22;;;;;;;6.00;3.95;;;;;;;;;;4930630;28;20502;-40
2022/12/14 09:26:01;;;;;;;3.17;2.88;;;;;;;;;;4931114;29;20046;-40
2022/12/14 09:28:27;;;;;;;7.30;4.97;;;;;;;;;;4928281;28;20052;-43
2022/12/14 09:30:55;;;;;;;4.20;3.58;;;;;;;;;;4928934;29;20038;-41
2022/12/14 09:33:21;;;;;;;5.22;3.45;;;;;;;;;;4928817;28;20383;-41
2022/12/14 09:35:46;;;;;;;12.57;7.53;;;;;;;;;;4929801;29;20044;-41
2022/12/14 09:38:11;;;;;;;7.25;5.10;;;;;;;;;;4927094;28;20481;-40
2022/12/14 09:40:41;;;;;;;3.70;3.40;;;;;;;;;;4929310;29;20024;-43
2022/12/14 09:43:18;;;;;;;6.15;4.60;;;;;;;;;;4929637;28;20036;-41
2022/12/14 09:45:50;;;;;;;14.07;6.60;;;;;;;;;;4927291;29;20032;-41
2022/12/14 09:48:21;;;;;;;12.00;7.10;;;;;;;;;;4930156;28;20055;-40
2022/12/14 09:50:48;;;;;;;6.20;3.55;;;;;;;;;;4929516;29;20479;-42
2022/12/14 09:53:15;;;;;;;5.60;3.40;;;;;;;;;;4930479;28;20048;-42
2022/12/14 09:55:47;;;;;;;3.70;3.40;;;;;;;;;;4929654;29;20028;-41
2022/12/14 09:58:21;;;;;;;3.53;3.08;;;;;;;;;;4930565;28;20036;-40
2022/12/14 10:00:49;;;;;;;3.72;3.30;;;;;;;;;;4928223;29;20044;-42
2022/12/14 10:03:31;;;;;;;3.45;2.50;;;;;;;;;;4927608;28;20407;-41
2022/12/14 10:06:09;;;;;;;2.25;2.05;;;;;;;;;;4929500;29;20656;-43
2022/12/14 10:08:39;;;;;;;2.92;2.63;;;;;;;;;;4928973;28;20051;-40
2022/12/14 10:11:15;;;;;;;5.07;3.13;;;;;;;;;;4931488;29;20494;-41
2022/12/14 10:13:45;;;;;;;5.45;4.13;;;;;;;;;;4921527;29;20055;-41
2022/12/14 10:16:26;;;;;;;5.82;4.63;;;;;;;;;;4930433;29;20034;-40
2022/12/14 10:19:08;;;;;;;4.13;3.33;;;;;;;;;;4927716;29;20063;-43
2022/12/14 10:21:53;;;;;;;4.55;2.90;;;;;;;;;;4929466;29;20372;-41
2022/12/14 10:24:28;;;;;;;6.63;2.80;;;;;;;;;;4926590;28;20138;-42
2022/12/14 10:26:54;;;;;;;2.92;1.92;;;;;;;;;;4929624;29;20040;-41
2022/12/14 10:29:40;;;;;;;2.65;1.60;;;;;;;;;;4927975;28;20088;-41
2022/12/14 10:32:20;;;;;;;2.90;1.60;;;;;;;;;;4929349;29;20406;-43
2022/12/14 10:34:46;;;;;;;1.67;1.50;;;;;;;;;;4925717;28;20127;-40
2022/12/14 10:37:36;;;;;;;9.25;5.55;;;;;;;;;;4928856;29;20499;-42
2022/12/14 10:40:05;;;;;;;3.30;2.63;;;;;;;;;;4928728;29;20059;-39
2022/12/14 10:42:52;;;;;;;5.13;1.95;;;;;;;;;;4929745;29;20036;-42
2022/12/14 10:45:24;;;;;;;3.35;1.58;;;;;;;;;;4931282;29;20044;-40
2022/12/14 10:47:56;;;;;;;5.93;3.67;;;;;;;;;;4928835;28;20032;-41
2022/12/14 10:50:48;;;;;;;3.00;2.78;;;;;;;;;;4930325;29;20044;-42
2022/12/14 10:53:18;;;;;;;4.00;3.10;;;;;;;;;;4924762;28;20103;-41
2022/12/14 10:55:45;;;;;;;3.22;2.92;;;;;;;;;;4927423;29;20028;-40
2022/12/14 10:58:10;;;;;;;3.50;3.20;;;;;;;;;;4930767;28;20039;-41
2022/12/14 11:00:36;;;;;;;1.83;1.70;;;;;;;;;;4928951;29;20028;-41
2022/12/14 11:03:10;;;;;;;2.30;2.10;;;;;;;;;;4930455;29;20058;-41
2022/12/14 11:05:48;;;;;;;5.15;3.10;;;;;;;;;;4923537;29;20406;-42
2022/12/14 11:08:51;;;;;;;3.60;2.10;;;;;;;;;;4928278;28;20035;-42
2022/12/14 11:11:23;;;;;;;3.83;2.10;;;;;;;;;;4929090;29;20047;-41
2022/12/14 11:14:07;;;;;;;3.10;2.55;;;;;;;;;;4925264;28;20046;-40
2022/12/14 11:16:37;;;;;;;3.17;2.88;;;;;;;;;;4922925;29;20032;-42
2022/12/14 11:19:05;;;;;;;7.25;3.30;;;;;;;;;;4927051;28;20051;-40
2022/12/14 11:21:34;;;;;;;4.50;2.45;;;;;;;;;;4925346;29;20047;-40
2022/12/14 11:24:01;;;;;;;3.28;2.10;;;;;;;;;;4926556;28;20097;-41
2022/12/14 11:26:35;;;;;;;3.15;2.10;;;;;;;;;;4928663;29;20443;-43
2022/12/14 11:29:02;;;;;;;2.15;1.95;;;;;;;;;;4928035;28;20046;-43
2022/12/14 11:31:37;;;;;;;3.40;1.92;;;;;;;;;;4931205;28;20054;-42
2022/12/14 11:34:20;;;;;;;4.28;2.63;;;;;;;;;;4930979;28;20047;-42
2022/12/14 11:36:47;;;;;;;7.55;2.78;;;;;;;;;;4928126;29;20039;-45
2022/12/14 11:39:12;;;;;;;4.82;2.30;;;;;;;;;;4929148;28;20042;-44
2022/12/14 11:41:50;;;;;;;5.75;2.75;;;;;;;;;;4927508;29;20043;-43
2022/12/14 11:44:16;;;;;;;7.90;4.03;;;;;;;;;;4924883;28;20044;-42
2022/12/14 11:46:48;;;;;;;12.25;4.72;;;;;;;;;;4923340;29;20028;-42
2022/12/14 11:49:33;;;;;;;9.52;4.70;;;;;;;;;;4925421;28;20123;-42
2022/12/14 11:52:05;;;;;;;5.18;3.95;;;;;;;;;;4928331;29;20051;-44
2022/12/14 11:54:42;;;;;;;6.75;3.90;;;;;;;;;;4925830;29;20131;-42
2022/12/14 11:57:13;;;;;;;4.32;3.75;;;;;;;;;;4924840;29;20087;-42
2022/12/14 11:59:52;;;;;;;2.80;2.60;;;;;;;;;;4925646;28;20040;-42
2022/12/14 12:02:29;;;;;;;4.28;2.88;;;;;;;;;;4922853;29;20038;-43
2022/12/14 12:05:10;;;;;;;9.32;2.88;;;;;;;;;;4925982;28;20051;-43
2022/12/14 12:07:41;;;;;;;6.47;3.33;;;;;;;;;;4926043;29;20039;-42
2022/12/14 12:10:13;;;;;;;3.70;3.40;;;;;;;;;;4929554;28;20047;-42
2022/12/14 12:12:53;;;;;;;6.05;4.65;;;;;;;;;;4927468;29;20122;-41
2022/12/14 12:15:31;;;;;;;4.25;3.85;;;;;;;;;;4925857;29;20051;-41
2022/12/14 12:18:04;;;;;;;4.65;3.40;;;;;;;;;;4925245;28;20907;-42
2022/12/14 12:20:38;;;;;;;4.13;3.67;;;;;;;;;;4929231;29;20078;-44
2022/12/14 12:23:14;;;;;;;5.85;4.45;;;;;;;;;;4928971;28;20083;-42
2022/12/14 12:25:41;;;;;;;7.40;5.88;;;;;;;;;;4927615;29;20430;-42
2022/12/14 12:28:30;;;;;;;5.38;4.82;;;;;;;;;;4928583;28;20032;-41
2022/12/14 12:31:02;;;;;;;7.75;5.93;;;;;;;;;;4927161;29;20032;-42
2022/12/14 12:34:01;;;;;;;9.57;6.90;;;;;;;;;;4927045;28;20044;-42
2022/12/14 12:36:29;;;;;;;11.25;7.07;;;;;;;;;;4925369;29;20059;-45
2022/12/14 12:39:03;;;;;;;18.90;9.40;;;;;;;;;;4925947;28;20040;-42
2022/12/14 12:41:38;;;;;;;17.08;9.30;;;;;;;;;;4925585;29;20394;-44
2022/12/14 12:44:26;;;;;;;8.75;7.80;;;;;;;;;;4931674;28;20043;-42
2022/12/14 12:47:05;;;;;;;13.25;7.03;;;;;;;;;;4931660;29;20103;-44
2022/12/14 12:49:32;;;;;;;12.82;8.80;;;;;;;;;;4930908;28;20052;-42
2022/12/14 12:52:01;;;;;;;22.40;11.13;;;;;;;;;;4930767;29;20072;-41
2022/12/14 12:54:53;;;;;;;29.50;14.77;;;;;;;;;;4931079;28;20040;-44
2022/12/14 12:57:20;;;;;;;17.15;9.82;;;;;;;;;;4929330;29;20034;-44
2022/12/14 12:59:53;;;;;;;18.17;9.60;;;;;;;;;;4932103;28;20035;-42
2022/12/14 13:02:32;;;;;;;9.07;6.90;;;;;;;;;;4930198;29;20371;-43
2022/12/14 13:05:01;;;;;;;10.57;7.40;;;;;;;;;;4928634;28;20430;-42
2022/12/14 13:07:45;;;;;;;10.55;7.75;;;;;;;;;;4931089;29;20482;-43
2022/12/14 13:10:23;;;;;;;10.63;8.20;;;;;;;;;;4931211;28;20122;-41
2022/12/14 13:13:21;;;;;;;17.40;9.23;;;;;;;;;;4929980;29;20043;-42
2022/12/14 13:15:54;;;;;;;11.60;7.70;;;;;;;;;;4927555;29;20059;-44
2022/12/14 13:18:27;;;;;;;16.60;8.20;;;;;;;;;;4932088;29;20574;-44
2022/12/14 13:20:54;;;;;;;10.93;7.50;;;;;;;;;;4930649;29;20032;-43
2022/12/14 13:23:21;;;;;;;10.48;7.97;;;;;;;;;;4930606;28;20032;-41
2022/12/14 13:26:05;;;;;;;14.77;9.73;;;;;;;;;;4932065;29;20087;-43
2022/12/14 13:28:33;;;;;;;15.80;8.95;;;;;;;;;;4927106;28;20087;-42
2022/12/14 13:31:24;;;;;;;14.20;7.93;;;;;;;;;;4929870;29;20035;-41
2022/12/14 13:34:15;;;;;;;14.23;9.35;;;;;;;;;;4930880;28;20498;-42
2022/12/14 13:37:10;;;;;;;10.57;8.48;;;;;;;;;;4928973;29;20043;-40
2022/12/14 13:39:50;;;;;;;11.43;8.52;;;;;;;;;;4906294;29;20044;-42
2022/12/14 13:42:25;;;;;;;13.00;7.85;;;;;;;;;;4912463;29;20498;-43
2022/12/14 13:44:58;;;;;;;9.15;7.80;;;;;;;;;;4908361;29;20040;-44
2022/12/14 13:47:46;;;;;;;13.25;5.25;;;;;;;;;;4906255;29;20103;-41
2022/12/14 13:50:35;;;;;;;5.82;4.50;;;;;;;;;;4906879;29;20080;-42
2022/12/14 13:53:12;;;;;;;8.23;4.97;;;;;;;;;;4907062;29;20040;-41
2022/12/14 13:55:45;;;;;;;8.90;4.93;;;;;;;;;;4908410;29;20039;-44
2022/12/14 13:58:23;;;;;;;8.15;5.90;;;;;;;;;;4908805;29;20044;-43
2022/12/14 14:00:57;;;;;;;12.63;6.47;;;;;;;;;;4907596;29;20175;-46
2022/12/14 14:03:51;;;;;;;13.25;6.82;;;;;;;;;;4904052;29;20044;-42
2022/12/14 14:06:37;;;;;;;13.40;6.35;;;;;;;;;;4906967;29;20067;-42
2022/12/14 14:09:33;;;;;;;21.45;8.18;;;;;;;;;;4909265;29;20110;-42
2022/12/14 14:12:01;;;;;;;21.67;8.40;;;;;;;;;;4904004;29;20133;-41
2022/12/14 14:15:05;;;;;;;12.50;6.68;;;;;;;;;;4900986;29;20167;-43
2022/12/14 14:17:38;;;;;;;9.00;4.82;;;;;;;;;;4920627;29;20470;-41
2022/12/14 14:20:37;;;;;;;9.25;4.95;;;;;;;;;;4926445;28;20040;-47
2022/12/14 14:23:25;;;;;;;5.60;4.22;;;;;;;;;;4930921;28;20498;-42
2022/12/14 14:26:07;;;;;;;8.15;4.43;;;;;;;;;;4929296;29;20402;-42
2022/12/14 14:28:34;;;;;;;7.38;4.63;;;;;;;;;;4930248;28;20119;-41
2022/12/14 14:31:00;;;;;;;12.23;4.55;;;;;;;;;;4932144;29;20446;-43
2022/12/14 14:33:25;;;;;;;7.97;5.00;;;;;;;;;;4930405;28;20140;-42
2022/12/14 14:35:51;;;;;;;10.57;4.50;;;;;;;;;;4929040;29;20031;-42
2022/12/14 14:38:27;;;;;;;16.20;5.25;;;;;;;;;;4929857;28;20051;-42
2022/12/14 14:40:55;;;;;;;18.35;5.32;;;;;;;;;;4929541;29;20639;-42
2022/12/14 14:43:32;;;;;;;10.30;5.50;;;;;;;;;;4929490;28;20648;-42
2022/12/14 14:46:00;;;;;;;10.80;5.80;;;;;;;;;;4928186;29;20028;-42
2022/12/14 14:48:37;;;;;;;9.95;6.28;;;;;;;;;;4925693;28;20192;-43
2022/12/14 14:51:05;;;;;;;10.70;5.05;;;;;;;;;;4928504;29;20075;-42
2022/12/14 14:53:35;;;;;;;14.00;6.85;;;;;;;;;;4928274;28;20048;-42
2022/12/14 14:56:09;;;;;;;11.68;6.13;;;;;;;;;;4926272;29;20050;-40
2022/12/14 14:58:36;;;;;;;9.75;5.38;;;;;;;;;;4928667;28;20039;-41
2022/12/14 15:01:08;;;;;;;11.05;5.97;;;;;;;;;;4926435;29;20482;-42
2022/12/14 15:03:44;;;;;;;11.55;6.68;;;;;;;;;;4925363;28;20075;-42
2022/12/14 15:06:16;;;;;;;10.75;6.72;;;;;;;;;;4928657;29;20083;-43
2022/12/14 15:09:01;;;;;;;7.65;5.88;;;;;;;;;;4928073;28;20095;-43
2022/12/14 15:11:35;;;;;;;16.35;8.60;;;;;;;;;;4929236;29;20028;-43
2022/12/14 15:14:22;;;;;;;12.60;8.00;;;;;;;;;;4931243;28;20095;-42
2022/12/14 15:16:47;;;;;;;14.50;8.40;;;;;;;;;;4923744;29;20047;-41
2022/12/14 15:19:28;;;;;;;14.90;8.30;;;;;;;;;;4926168;28;20040;-43